Lincoln Center, Maine
Current Conditions -  °F | °C
As of 3:53 AM on Sunday 23 Nov 2014 (Local Time) from KMLT Reporting Station
Overcast Overcast  
Wind Chill: 35°   Ceiling: 2200
Heat Index: 35°   Visibility: 10mi
Dew Point: 21°   Wind: 0mph
Humidity: 57%   Direction: NA
Pressure: 29.9"   Gusts: NA
Location:  45.3335°N, 68.5089°W
Report Text: KMLT 230853Z AUTO 00000KT 10SM OVC022 02/M06 A2990 RMK AO2 SLP135 T00171061 53012
Loading
Personal Weather Stations






























Interactive Weather Map New forecast layout! Learn more

10-Day Weather Forecast

Advertisements
Track Severe Weather on mobile